sensor_id;sensor_type;location;lat;lon;timestamp;P1;durP1;ratioP1;P2;durP2;ratioP2
70558;SDS011;58108;48.094;11.838;2023-07-16T00:01:27;4.90;;;2.80;;
70558;SDS011;58108;48.094;11.838;2023-07-16T00:03:53;7.45;;;3.00;;
70558;SDS011;58108;48.094;11.838;2023-07-16T00:06:18;6.45;;;3.00;;
70558;SDS011;58108;48.094;11.838;2023-07-16T00:08:43;6.35;;;3.10;;
70558;SDS011;58108;48.094;11.838;2023-07-16T00:11:08;5.95;;;3.05;;
70558;SDS011;58108;48.094;11.838;2023-07-16T00:13:33;5.20;;;3.85;;
70558;SDS011;58108;48.094;11.838;2023-07-16T00:15:58;7.20;;;3.40;;
70558;SDS011;58108;48.094;11.838;2023-07-16T00:18:24;6.73;;;3.30;;
70558;SDS011;58108;48.094;11.838;2023-07-16T00:20:49;6.00;;;2.95;;
70558;SDS011;58108;48.094;11.838;2023-07-16T00:23:14;6.05;;;3.40;;
70558;SDS011;58108;48.094;11.838;2023-07-16T00:25:39;5.63;;;3.27;;
70558;SDS011;58108;48.094;11.838;2023-07-16T00:28:04;8.10;;;3.23;;
70558;SDS011;58108;48.094;11.838;2023-07-16T00:30:30;6.90;;;3.47;;
70558;SDS011;58108;48.094;11.838;2023-07-16T00:32:55;4.93;;;3.23;;
70558;SDS011;58108;48.094;11.838;2023-07-16T00:35:20;6.90;;;3.60;;
70558;SDS011;58108;48.094;11.838;2023-07-16T00:37:45;6.57;;;3.53;;
70558;SDS011;58108;48.094;11.838;2023-07-16T00:40:10;6.40;;;3.20;;
70558;SDS011;58108;48.094;11.838;2023-07-16T00:42:36;5.07;;;3.23;;
70558;SDS011;58108;48.094;11.838;2023-07-16T00:45:01;7.10;;;3.67;;
70558;SDS011;58108;48.094;11.838;2023-07-16T00:47:26;6.50;;;3.37;;
70558;SDS011;58108;48.094;11.838;2023-07-16T00:49:51;5.63;;;3.30;;
70558;SDS011;58108;48.094;11.838;2023-07-16T00:52:18;6.63;;;3.30;;
70558;SDS011;58108;48.094;11.838;2023-07-16T00:54:43;6.97;;;3.15;;
70558;SDS011;58108;48.094;11.838;2023-07-16T00:57:09;5.97;;;3.20;;
70558;SDS011;58108;48.094;11.838;2023-07-16T00:59:34;6.63;;;3.30;;
70558;SDS011;58108;48.094;11.838;2023-07-16T01:01:59;6.27;;;3.00;;
70558;SDS011;58108;48.094;11.838;2023-07-16T01:04:24;5.63;;;3.07;;
70558;SDS011;58108;48.094;11.838;2023-07-16T01:06:53;5.47;;;3.00;;
70558;SDS011;58108;48.094;11.838;2023-07-16T01:09:20;5.82;;;3.30;;
70558;SDS011;58108;48.094;11.838;2023-07-16T01:11:46;6.20;;;3.37;;
70558;SDS011;58108;48.094;11.838;2023-07-16T01:14:12;6.07;;;3.20;;
70558;SDS011;58108;48.094;11.838;2023-07-16T01:16:38;5.50;;;3.28;;
70558;SDS011;58108;48.094;11.838;2023-07-16T01:19:03;5.70;;;3.07;;
70558;SDS011;58108;48.094;11.838;2023-07-16T01:21:37;4.77;;;2.97;;
70558;SDS011;58108;48.094;11.838;2023-07-16T01:26:53;6.13;;;3.33;;
70558;SDS011;58108;48.094;11.838;2023-07-16T01:31:55;7.15;;;3.78;;
70558;SDS011;58108;48.094;11.838;2023-07-16T01:34:20;7.73;;;3.50;;
70558;SDS011;58108;48.094;11.838;2023-07-16T01:36:46;8.93;;;3.58;;
70558;SDS011;58108;48.094;11.838;2023-07-16T01:39:11;7.77;;;3.97;;
70558;SDS011;58108;48.094;11.838;2023-07-16T01:41:36;6.40;;;3.63;;
70558;SDS011;58108;48.094;11.838;2023-07-16T01:44:01;6.57;;;3.90;;
70558;SDS011;58108;48.094;11.838;2023-07-16T01:46:27;6.00;;;3.80;;
70558;SDS011;58108;48.094;11.838;2023-07-16T01:48:52;8.43;;;3.80;;
70558;SDS011;58108;48.094;11.838;2023-07-16T01:51:17;6.93;;;3.53;;
70558;SDS011;58108;48.094;11.838;2023-07-16T01:53:43;7.13;;;3.83;;
70558;SDS011;58108;48.094;11.838;2023-07-16T01:56:08;7.97;;;4.00;;
70558;SDS011;58108;48.094;11.838;2023-07-16T01:58:33;7.17;;;3.80;;
70558;SDS011;58108;48.094;11.838;2023-07-16T02:00:58;6.13;;;3.40;;
70558;SDS011;58108;48.094;11.838;2023-07-16T02:03:23;6.93;;;4.07;;
70558;SDS011;58108;48.094;11.838;2023-07-16T02:05:49;5.47;;;3.13;;
70558;SDS011;58108;48.094;11.838;2023-07-16T02:08:14;7.10;;;3.90;;
70558;SDS011;58108;48.094;11.838;2023-07-16T02:10:39;7.83;;;4.10;;
70558;SDS011;58108;48.094;11.838;2023-07-16T02:13:04;6.80;;;3.90;;
70558;SDS011;58108;48.094;11.838;2023-07-16T02:15:29;7.37;;;3.87;;
70558;SDS011;58108;48.094;11.838;2023-07-16T02:17:55;8.07;;;3.97;;
70558;SDS011;58108;48.094;11.838;2023-07-16T02:20:20;7.60;;;4.23;;
70558;SDS011;58108;48.094;11.838;2023-07-16T02:22:45;6.87;;;3.87;;
70558;SDS011;58108;48.094;11.838;2023-07-16T02:25:10;9.17;;;4.60;;
70558;SDS011;58108;48.094;11.838;2023-07-16T02:27:35;7.97;;;4.43;;
70558;SDS011;58108;48.094;11.838;2023-07-16T02:30:01;7.90;;;3.93;;
70558;SDS011;58108;48.094;11.838;2023-07-16T02:32:26;7.17;;;4.20;;
70558;SDS011;58108;48.094;11.838;2023-07-16T02:34:51;7.13;;;4.23;;
70558;SDS011;58108;48.094;11.838;2023-07-16T02:37:16;6.67;;;3.93;;
70558;SDS011;58108;48.094;11.838;2023-07-16T02:39:43;7.63;;;4.00;;
70558;SDS011;58108;48.094;11.838;2023-07-16T02:42:09;7.75;;;4.40;;
70558;SDS011;58108;48.094;11.838;2023-07-16T02:44:35;6.80;;;4.03;;
70558;SDS011;58108;48.094;11.838;2023-07-16T02:47:03;7.78;;;4.47;;
70558;SDS011;58108;48.094;11.838;2023-07-16T02:49:29;8.13;;;4.33;;
70558;SDS011;58108;48.094;11.838;2023-07-16T02:51:54;6.37;;;3.70;;
70558;SDS011;58108;48.094;11.838;2023-07-16T02:54:19;7.87;;;4.13;;
70558;SDS011;58108;48.094;11.838;2023-07-16T02:56:44;8.37;;;4.50;;
70558;SDS011;58108;48.094;11.838;2023-07-16T02:59:09;7.27;;;4.07;;
70558;SDS011;58108;48.094;11.838;2023-07-16T03:01:34;7.67;;;4.00;;
70558;SDS011;58108;48.094;11.838;2023-07-16T03:04:00;8.17;;;4.97;;
70558;SDS011;58108;48.094;11.838;2023-07-16T03:06:25;7.77;;;4.00;;
70558;SDS011;58108;48.094;11.838;2023-07-16T03:08:50;8.63;;;4.47;;
70558;SDS011;58108;48.094;11.838;2023-07-16T03:11:15;8.93;;;4.20;;
70558;SDS011;58108;48.094;11.838;2023-07-16T03:13:40;7.47;;;4.50;;
70558;SDS011;58108;48.094;11.838;2023-07-16T03:16:05;8.37;;;4.23;;
70558;SDS011;58108;48.094;11.838;2023-07-16T03:18:31;7.10;;;4.13;;
70558;SDS011;58108;48.094;11.838;2023-07-16T03:20:56;6.33;;;4.23;;
70558;SDS011;58108;48.094;11.838;2023-07-16T03:23:22;7.67;;;4.53;;
70558;SDS011;58108;48.094;11.838;2023-07-16T03:25:47;7.57;;;4.22;;
70558;SDS011;58108;48.094;11.838;2023-07-16T03:28:12;7.03;;;4.73;;
70558;SDS011;58108;48.094;11.838;2023-07-16T03:30:38;8.77;;;4.40;;
70558;SDS011;58108;48.094;11.838;2023-07-16T03:33:04;7.53;;;3.93;;
70558;SDS011;58108;48.094;11.838;2023-07-16T03:35:30;7.85;;;4.45;;
70558;SDS011;58108;48.094;11.838;2023-07-16T03:37:55;6.97;;;4.32;;
70558;SDS011;58108;48.094;11.838;2023-07-16T03:40:23;7.20;;;4.57;;
70558;SDS011;58108;48.094;11.838;2023-07-16T03:42:48;9.40;;;4.63;;
70558;SDS011;58108;48.094;11.838;2023-07-16T03:45:13;7.73;;;4.60;;
70558;SDS011;58108;48.094;11.838;2023-07-16T03:47:39;7.68;;;4.85;;
70558;SDS011;58108;48.094;11.838;2023-07-16T03:50:05;8.10;;;4.73;;
70558;SDS011;58108;48.094;11.838;2023-07-16T03:52:30;7.95;;;4.53;;
70558;SDS011;58108;48.094;11.838;2023-07-16T03:54:55;9.15;;;4.70;;
70558;SDS011;58108;48.094;11.838;2023-07-16T03:57:20;8.40;;;4.80;;
70558;SDS011;58108;48.094;11.838;2023-07-16T03:59:46;7.90;;;4.60;;
70558;SDS011;58108;48.094;11.838;2023-07-16T04:02:11;7.73;;;4.40;;
70558;SDS011;58108;48.094;11.838;2023-07-16T04:04:36;8.00;;;4.80;;
70558;SDS011;58108;48.094;11.838;2023-07-16T04:07:01;8.93;;;4.30;;
70558;SDS011;58108;48.094;11.838;2023-07-16T04:09:27;6.93;;;2.50;;
70558;SDS011;58108;48.094;11.838;2023-07-16T04:11:52;4.20;;;1.90;;
70558;SDS011;58108;48.094;11.838;2023-07-16T04:14:17;5.07;;;1.60;;
70558;SDS011;58108;48.094;11.838;2023-07-16T04:16:42;2.97;;;1.60;;
70558;SDS011;58108;48.094;11.838;2023-07-16T04:19:08;3.30;;;1.87;;
70558;SDS011;58108;48.094;11.838;2023-07-16T04:21:33;4.20;;;1.90;;
70558;SDS011;58108;48.094;11.838;2023-07-16T04:23:58;4.23;;;1.83;;
70558;SDS011;58108;48.094;11.838;2023-07-16T04:26:23;4.00;;;2.33;;
70558;SDS011;58108;48.094;11.838;2023-07-16T04:28:49;4.43;;;1.83;;
70558;SDS011;58108;48.094;11.838;2023-07-16T04:31:14;3.90;;;2.00;;
70558;SDS011;58108;48.094;11.838;2023-07-16T04:33:39;3.80;;;1.90;;
70558;SDS011;58108;48.094;11.838;2023-07-16T04:36:04;4.50;;;1.60;;
70558;SDS011;58108;48.094;11.838;2023-07-16T04:38:29;5.13;;;1.92;;
70558;SDS011;58108;48.094;11.838;2023-07-16T04:40:54;3.72;;;1.85;;
70558;SDS011;58108;48.094;11.838;2023-07-16T04:43:20;3.85;;;2.10;;
70558;SDS011;58108;48.094;11.838;2023-07-16T04:45:45;8.40;;;2.37;;
70558;SDS011;58108;48.094;11.838;2023-07-16T04:48:11;5.88;;;1.80;;
70558;SDS011;58108;48.094;11.838;2023-07-16T04:50:37;5.67;;;1.90;;
70558;SDS011;58108;48.094;11.838;2023-07-16T04:53:03;3.55;;;1.67;;
70558;SDS011;58108;48.094;11.838;2023-07-16T04:55:28;4.20;;;2.00;;
70558;SDS011;58108;48.094;11.838;2023-07-16T04:57:53;3.97;;;2.07;;
70558;SDS011;58108;48.094;11.838;2023-07-16T05:00:19;4.13;;;1.70;;
70558;SDS011;58108;48.094;11.838;2023-07-16T05:02:44;5.80;;;2.40;;
70558;SDS011;58108;48.094;11.838;2023-07-16T05:05:09;3.97;;;2.20;;
70558;SDS011;58108;48.094;11.838;2023-07-16T05:07:34;4.87;;;1.93;;
70558;SDS011;58108;48.094;11.838;2023-07-16T05:09:59;5.50;;;2.10;;
70558;SDS011;58108;48.094;11.838;2023-07-16T05:12:24;3.90;;;1.90;;
70558;SDS011;58108;48.094;11.838;2023-07-16T05:14:51;3.83;;;2.00;;
70558;SDS011;58108;48.094;11.838;2023-07-16T05:17:16;3.95;;;1.55;;
70558;SDS011;58108;48.094;11.838;2023-07-16T05:19:41;4.10;;;1.83;;
70558;SDS011;58108;48.094;11.838;2023-07-16T05:22:07;5.07;;;1.60;;
70558;SDS011;58108;48.094;11.838;2023-07-16T05:24:32;3.83;;;1.53;;
70558;SDS011;58108;48.094;11.838;2023-07-16T05:26:57;3.60;;;1.53;;
70558;SDS011;58108;48.094;11.838;2023-07-16T05:29:22;4.63;;;2.03;;
70558;SDS011;58108;48.094;11.838;2023-07-16T05:31:48;4.40;;;1.37;;
70558;SDS011;58108;48.094;11.838;2023-07-16T05:34:13;5.73;;;1.73;;
70558;SDS011;58108;48.094;11.838;2023-07-16T05:36:38;3.43;;;1.60;;
70558;SDS011;58108;48.094;11.838;2023-07-16T05:39:03;9.80;;;2.03;;
70558;SDS011;58108;48.094;11.838;2023-07-16T05:41:28;5.10;;;1.70;;
70558;SDS011;58108;48.094;11.838;2023-07-16T05:43:53;5.40;;;1.70;;
70558;SDS011;58108;48.094;11.838;2023-07-16T05:46:19;3.93;;;1.60;;
70558;SDS011;58108;48.094;11.838;2023-07-16T05:48:44;4.53;;;1.50;;
70558;SDS011;58108;48.094;11.838;2023-07-16T05:51:09;4.00;;;1.50;;
70558;SDS011;58108;48.094;11.838;2023-07-16T05:53:34;3.50;;;1.60;;
70558;SDS011;58108;48.094;11.838;2023-07-16T05:55:59;3.10;;;1.20;;
70558;SDS011;58108;48.094;11.838;2023-07-16T05:58:24;4.43;;;1.70;;
70558;SDS011;58108;48.094;11.838;2023-07-16T06:00:50;3.47;;;1.40;;
70558;SDS011;58108;48.094;11.838;2023-07-16T06:03:15;4.50;;;1.65;;
70558;SDS011;58108;48.094;11.838;2023-07-16T06:05:42;3.53;;;1.45;;
70558;SDS011;58108;48.094;11.838;2023-07-16T06:08:07;4.07;;;1.57;;
70558;SDS011;58108;48.094;11.838;2023-07-16T06:10:33;3.70;;;1.50;;
70558;SDS011;58108;48.094;11.838;2023-07-16T06:12:58;3.50;;;1.30;;
70558;SDS011;58108;48.094;11.838;2023-07-16T06:15:24;3.70;;;1.50;;
70558;SDS011;58108;48.094;11.838;2023-07-16T06:17:49;5.77;;;1.80;;
70558;SDS011;58108;48.094;11.838;2023-07-16T06:20:14;3.30;;;1.40;;
70558;SDS011;58108;48.094;11.838;2023-07-16T06:22:39;3.23;;;1.37;;
70558;SDS011;58108;48.094;11.838;2023-07-16T06:25:04;3.70;;;1.40;;
70558;SDS011;58108;48.094;11.838;2023-07-16T06:27:30;3.57;;;1.30;;
70558;SDS011;58108;48.094;11.838;2023-07-16T06:29:55;2.93;;;1.27;;
70558;SDS011;58108;48.094;11.838;2023-07-16T06:32:20;4.50;;;1.87;;
70558;SDS011;58108;48.094;11.838;2023-07-16T06:34:46;5.55;;;2.03;;
70558;SDS011;58108;48.094;11.838;2023-07-16T06:37:11;3.10;;;1.10;;
70558;SDS011;58108;48.094;11.838;2023-07-16T06:39:36;2.30;;;1.00;;
70558;SDS011;58108;48.094;11.838;2023-07-16T06:42:01;3.00;;;0.70;;
70558;SDS011;58108;48.094;11.838;2023-07-16T06:44:27;3.00;;;0.87;;
70558;SDS011;58108;48.094;11.838;2023-07-16T06:46:52;1.87;;;0.60;;
70558;SDS011;58108;48.094;11.838;2023-07-16T06:49:17;3.10;;;0.60;;
70558;SDS011;58108;48.094;11.838;2023-07-16T06:51:43;2.13;;;0.70;;
70558;SDS011;58108;48.094;11.838;2023-07-16T06:54:08;2.87;;;0.80;;
70558;SDS011;58108;48.094;11.838;2023-07-16T06:56:33;3.40;;;1.00;;
70558;SDS011;58108;48.094;11.838;2023-07-16T06:58:58;3.30;;;0.67;;
70558;SDS011;58108;48.094;11.838;2023-07-16T07:01:24;3.43;;;1.63;;
70558;SDS011;58108;48.094;11.838;2023-07-16T07:03:49;2.17;;;0.75;;
70558;SDS011;58108;48.094;11.838;2023-07-16T07:06:14;2.03;;;0.50;;
70558;SDS011;58108;48.094;11.838;2023-07-16T07:08:39;1.93;;;0.70;;
70558;SDS011;58108;48.094;11.838;2023-07-16T07:11:05;1.83;;;0.60;;
70558;SDS011;58108;48.094;11.838;2023-07-16T07:13:30;1.83;;;0.63;;
70558;SDS011;58108;48.094;11.838;2023-07-16T07:15:55;3.70;;;0.70;;
70558;SDS011;58108;48.094;11.838;2023-07-16T07:18:21;2.43;;;1.00;;
70558;SDS011;58108;48.094;11.838;2023-07-16T07:20:46;2.90;;;0.77;;
70558;SDS011;58108;48.094;11.838;2023-07-16T07:23:12;2.03;;;0.80;;
70558;SDS011;58108;48.094;11.838;2023-07-16T07:25:37;3.13;;;0.90;;
70558;SDS011;58108;48.094;11.838;2023-07-16T07:28:03;2.30;;;1.00;;
70558;SDS011;58108;48.094;11.838;2023-07-16T07:30:28;3.40;;;1.30;;
70558;SDS011;58108;48.094;11.838;2023-07-16T07:32:53;4.60;;;2.20;;
70558;SDS011;58108;48.094;11.838;2023-07-16T07:35:18;3.43;;;1.10;;
70558;SDS011;58108;48.094;11.838;2023-07-16T07:37:43;3.90;;;1.37;;
70558;SDS011;58108;48.094;11.838;2023-07-16T07:40:09;3.53;;;1.40;;
70558;SDS011;58108;48.094;11.838;2023-07-16T07:42:34;3.50;;;1.60;;
70558;SDS011;58108;48.094;11.838;2023-07-16T07:44:59;3.37;;;1.47;;
70558;SDS011;58108;48.094;11.838;2023-07-16T07:47:24;2.37;;;1.27;;
70558;SDS011;58108;48.094;11.838;2023-07-16T07:49:50;2.70;;;1.40;;
70558;SDS011;58108;48.094;11.838;2023-07-16T07:52:16;2.42;;;1.30;;
70558;SDS011;58108;48.094;11.838;2023-07-16T07:54:41;4.03;;;1.60;;
70558;SDS011;58108;48.094;11.838;2023-07-16T07:57:06;3.05;;;1.77;;
70558;SDS011;58108;48.094;11.838;2023-07-16T07:59:32;2.80;;;1.30;;
70558;SDS011;58108;48.094;11.838;2023-07-16T08:01:57;2.97;;;1.53;;
70558;SDS011;58108;48.094;11.838;2023-07-16T08:04:23;3.00;;;1.50;;
70558;SDS011;58108;48.094;11.838;2023-07-16T08:06:49;3.15;;;1.50;;
70558;SDS011;58108;48.094;11.838;2023-07-16T08:09:14;3.97;;;1.50;;
70558;SDS011;58108;48.094;11.838;2023-07-16T08:11:39;2.40;;;1.47;;
70558;SDS011;58108;48.094;11.838;2023-07-16T08:14:04;2.40;;;1.40;;
70558;SDS011;58108;48.094;11.838;2023-07-16T08:16:29;3.03;;;1.20;;
70558;SDS011;58108;48.094;11.838;2023-07-16T08:18:55;2.43;;;1.30;;
70558;SDS011;58108;48.094;11.838;2023-07-16T08:21:20;3.83;;;1.37;;
70558;SDS011;58108;48.094;11.838;2023-07-16T08:23:46;3.07;;;1.43;;
70558;SDS011;58108;48.094;11.838;2023-07-16T08:26:11;3.42;;;1.60;;
70558;SDS011;58108;48.094;11.838;2023-07-16T08:28:37;3.08;;;1.60;;
70558;SDS011;58108;48.094;11.838;2023-07-16T08:31:03;4.90;;;1.33;;
70558;SDS011;58108;48.094;11.838;2023-07-16T08:33:28;2.90;;;1.50;;
70558;SDS011;58108;48.094;11.838;2023-07-16T08:35:53;2.57;;;1.60;;
70558;SDS011;58108;48.094;11.838;2023-07-16T08:38:18;3.00;;;1.70;;
70558;SDS011;58108;48.094;11.838;2023-07-16T08:40:43;3.40;;;1.90;;
70558;SDS011;58108;48.094;11.838;2023-07-16T08:43:11;3.33;;;1.70;;
70558;SDS011;58108;48.094;11.838;2023-07-16T08:45:40;2.67;;;1.40;;
70558;SDS011;58108;48.094;11.838;2023-07-16T08:48:07;2.63;;;1.35;;
70558;SDS011;58108;48.094;11.838;2023-07-16T08:50:34;3.25;;;1.60;;
70558;SDS011;58108;48.094;11.838;2023-07-16T08:53:00;2.85;;;1.70;;
70558;SDS011;58108;48.094;11.838;2023-07-16T08:55:25;3.80;;;1.70;;
70558;SDS011;58108;48.094;11.838;2023-07-16T08:57:51;3.10;;;1.83;;
70558;SDS011;58108;48.094;11.838;2023-07-16T09:00:16;2.53;;;1.63;;
70558;SDS011;58108;48.094;11.838;2023-07-16T09:02:42;3.53;;;2.00;;
70558;SDS011;58108;48.094;11.838;2023-07-16T09:05:08;3.87;;;1.70;;
70558;SDS011;58108;48.094;11.838;2023-07-16T09:07:35;2.70;;;1.52;;
70558;SDS011;58108;48.094;11.838;2023-07-16T09:10:01;4.25;;;1.60;;
70558;SDS011;58108;48.094;11.838;2023-07-16T09:12:26;3.73;;;1.63;;
70558;SDS011;58108;48.094;11.838;2023-07-16T09:14:52;3.77;;;1.97;;
70558;SDS011;58108;48.094;11.838;2023-07-16T09:17:23;4.30;;;2.50;;
70558;SDS011;58108;48.094;11.838;2023-07-16T09:19:50;4.28;;;2.60;;
70558;SDS011;58108;48.094;11.838;2023-07-16T09:22:16;3.97;;;1.77;;
70558;SDS011;58108;48.094;11.838;2023-07-16T09:24:43;3.80;;;1.83;;
70558;SDS011;58108;48.094;11.838;2023-07-16T09:27:11;3.03;;;1.70;;
70558;SDS011;58108;48.094;11.838;2023-07-16T09:29:43;4.68;;;2.10;;
70558;SDS011;58108;48.094;11.838;2023-07-16T09:32:08;3.53;;;1.70;;
70558;SDS011;58108;48.094;11.838;2023-07-16T09:34:33;3.87;;;1.60;;
70558;SDS011;58108;48.094;11.838;2023-07-16T09:36:59;3.63;;;2.10;;
70558;SDS011;58108;48.094;11.838;2023-07-16T09:39:25;4.00;;;1.67;;
70558;SDS011;58108;48.094;11.838;2023-07-16T09:41:50;2.97;;;1.52;;
70558;SDS011;58108;48.094;11.838;2023-07-16T09:44:16;3.60;;;1.70;;
70558;SDS011;58108;48.094;11.838;2023-07-16T09:46:41;2.70;;;1.67;;
70558;SDS011;58108;48.094;11.838;2023-07-16T09:49:07;4.37;;;1.67;;
70558;SDS011;58108;48.094;11.838;2023-07-16T09:51:32;3.60;;;1.70;;
70558;SDS011;58108;48.094;11.838;2023-07-16T09:54:02;3.45;;;1.75;;
70558;SDS011;58108;48.094;11.838;2023-07-16T09:56:33;4.80;;;1.92;;
70558;SDS011;58108;48.094;11.838;2023-07-16T09:58:59;2.63;;;1.70;;
70558;SDS011;58108;48.094;11.838;2023-07-16T10:01:24;2.70;;;1.70;;
70558;SDS011;58108;48.094;11.838;2023-07-16T10:03:50;3.57;;;1.80;;
70558;SDS011;58108;48.094;11.838;2023-07-16T10:06:15;3.20;;;2.00;;
70558;SDS011;58108;48.094;11.838;2023-07-16T10:08:40;2.60;;;1.60;;
70558;SDS011;58108;48.094;11.838;2023-07-16T10:11:16;3.03;;;1.83;;
70558;SDS011;58108;48.094;11.838;2023-07-16T10:13:42;4.18;;;1.98;;
70558;SDS011;58108;48.094;11.838;2023-07-16T10:16:07;3.00;;;1.70;;
70558;SDS011;58108;48.094;11.838;2023-07-16T10:18:35;3.03;;;1.90;;
70558;SDS011;58108;48.094;11.838;2023-07-16T10:23:35;4.23;;;1.80;;
70558;SDS011;58108;48.094;11.838;2023-07-16T10:26:04;2.95;;;1.60;;
70558;SDS011;58108;48.094;11.838;2023-07-16T10:28:31;4.33;;;1.80;;
70558;SDS011;58108;48.094;11.838;2023-07-16T10:30:56;9.38;;;4.90;;
70558;SDS011;58108;48.094;11.838;2023-07-16T10:33:21;4.60;;;2.63;;
70558;SDS011;58108;48.094;11.838;2023-07-16T10:35:46;3.30;;;2.10;;
70558;SDS011;58108;48.094;11.838;2023-07-16T10:38:12;3.80;;;1.60;;
70558;SDS011;58108;48.094;11.838;2023-07-16T10:40:43;2.67;;;1.57;;
70558;SDS011;58108;48.094;11.838;2023-07-16T10:43:09;3.05;;;1.52;;
70558;SDS011;58108;48.094;11.838;2023-07-16T10:45:34;3.43;;;1.73;;
70558;SDS011;58108;48.094;11.838;2023-07-16T10:48:00;2.47;;;1.53;;
70558;SDS011;58108;48.094;11.838;2023-07-16T10:50:25;3.05;;;1.63;;
70558;SDS011;58108;48.094;11.838;2023-07-16T10:52:54;3.30;;;1.70;;
70558;SDS011;58108;48.094;11.838;2023-07-16T10:55:20;2.80;;;1.53;;
70558;SDS011;58108;48.094;11.838;2023-07-16T10:57:48;3.78;;;1.80;;
70558;SDS011;58108;48.094;11.838;2023-07-16T11:00:14;2.70;;;1.60;;
70558;SDS011;58108;48.094;11.838;2023-07-16T11:02:39;3.20;;;1.90;;
70558;SDS011;58108;48.094;11.838;2023-07-16T11:05:15;3.30;;;1.65;;
70558;SDS011;58108;48.094;11.838;2023-07-16T11:07:46;3.22;;;1.80;;
70558;SDS011;58108;48.094;11.838;2023-07-16T11:10:12;2.97;;;1.63;;
70558;SDS011;58108;48.094;11.838;2023-07-16T11:12:37;2.63;;;1.63;;
70558;SDS011;58108;48.094;11.838;2023-07-16T11:15:03;3.90;;;1.50;;
70558;SDS011;58108;48.094;11.838;2023-07-16T11:17:28;3.50;;;1.80;;
70558;SDS011;58108;48.094;11.838;2023-07-16T11:19:54;3.50;;;1.60;;
70558;SDS011;58108;48.094;11.838;2023-07-16T11:22:19;3.85;;;1.77;;
70558;SDS011;58108;48.094;11.838;2023-07-16T11:24:45;3.53;;;1.77;;
70558;SDS011;58108;48.094;11.838;2023-07-16T11:29:50;2.67;;;1.60;;
70558;SDS011;58108;48.094;11.838;2023-07-16T11:34:59;3.22;;;1.65;;
70558;SDS011;58108;48.094;11.838;2023-07-16T11:37:26;2.70;;;1.70;;
70558;SDS011;58108;48.094;11.838;2023-07-16T11:39:54;3.03;;;1.80;;
70558;SDS011;58108;48.094;11.838;2023-07-16T11:42:30;5.03;;;1.87;;
70558;SDS011;58108;48.094;11.838;2023-07-16T11:44:56;3.13;;;1.90;;
70558;SDS011;58108;48.094;11.838;2023-07-16T11:47:21;2.58;;;1.60;;
70558;SDS011;58108;48.094;11.838;2023-07-16T11:49:47;5.97;;;4.17;;
70558;SDS011;58108;48.094;11.838;2023-07-16T11:52:13;4.28;;;1.58;;
70558;SDS011;58108;48.094;11.838;2023-07-16T11:54:38;2.80;;;1.50;;
70558;SDS011;58108;48.094;11.838;2023-07-16T11:57:03;2.90;;;1.87;;
70558;SDS011;58108;48.094;11.838;2023-07-16T11:59:28;3.17;;;1.87;;
70558;SDS011;58108;48.094;11.838;2023-07-16T12:01:54;2.70;;;1.60;;
70558;SDS011;58108;48.094;11.838;2023-07-16T12:04:19;2.87;;;1.80;;
70558;SDS011;58108;48.094;11.838;2023-07-16T12:06:44;2.73;;;1.70;;
70558;SDS011;58108;48.094;11.838;2023-07-16T12:09:09;5.33;;;1.80;;
70558;SDS011;58108;48.094;11.838;2023-07-16T12:11:35;3.23;;;2.00;;
70558;SDS011;58108;48.094;11.838;2023-07-16T12:14:00;8.97;;;6.80;;
70558;SDS011;58108;48.094;11.838;2023-07-16T12:16:25;3.90;;;2.93;;
70558;SDS011;58108;48.094;11.838;2023-07-16T12:18:50;2.70;;;1.70;;
70558;SDS011;58108;48.094;11.838;2023-07-16T12:21:16;2.43;;;1.67;;
70558;SDS011;58108;48.094;11.838;2023-07-16T12:23:41;2.57;;;1.83;;
70558;SDS011;58108;48.094;11.838;2023-07-16T12:26:06;3.63;;;1.70;;
70558;SDS011;58108;48.094;11.838;2023-07-16T12:28:33;2.78;;;1.70;;
70558;SDS011;58108;48.094;11.838;2023-07-16T12:30:58;3.00;;;2.00;;
70558;SDS011;58108;48.094;11.838;2023-07-16T12:33:23;4.23;;;2.30;;
70558;SDS011;58108;48.094;11.838;2023-07-16T12:35:49;2.53;;;2.20;;
70558;SDS011;58108;48.094;11.838;2023-07-16T12:38:14;2.53;;;2.00;;
70558;SDS011;58108;48.094;11.838;2023-07-16T12:40:39;2.50;;;2.00;;
70558;SDS011;58108;48.094;11.838;2023-07-16T12:43:06;2.60;;;1.70;;
70558;SDS011;58108;48.094;11.838;2023-07-16T12:45:31;2.63;;;1.80;;
70558;SDS011;58108;48.094;11.838;2023-07-16T12:47:56;3.00;;;1.77;;
70558;SDS011;58108;48.094;11.838;2023-07-16T12:50:22;3.97;;;1.67;;
70558;SDS011;58108;48.094;11.838;2023-07-16T12:52:47;2.50;;;1.40;;
70558;SDS011;58108;48.094;11.838;2023-07-16T12:55:12;4.43;;;3.30;;
70558;SDS011;58108;48.094;11.838;2023-07-16T12:57:38;2.80;;;2.00;;
70558;SDS011;58108;48.094;11.838;2023-07-16T13:00:04;3.37;;;2.30;;
70558;SDS011;58108;48.094;11.838;2023-07-16T13:02:30;2.67;;;2.05;;
70558;SDS011;58108;48.094;11.838;2023-07-16T13:04:55;3.00;;;1.90;;
70558;SDS011;58108;48.094;11.838;2023-07-16T13:07:20;3.30;;;1.85;;
70558;SDS011;58108;48.094;11.838;2023-07-16T13:09:45;2.50;;;2.05;;
70558;SDS011;58108;48.094;11.838;2023-07-16T13:12:10;3.15;;;2.60;;
70558;SDS011;58108;48.094;11.838;2023-07-16T13:14:36;2.93;;;2.07;;
70558;SDS011;58108;48.094;11.838;2023-07-16T13:17:01;3.10;;;2.10;;
70558;SDS011;58108;48.094;11.838;2023-07-16T13:19:26;3.35;;;2.15;;
70558;SDS011;58108;48.094;11.838;2023-07-16T13:21:51;4.35;;;2.15;;
70558;SDS011;58108;48.094;11.838;2023-07-16T13:24:16;3.80;;;1.90;;
70558;SDS011;58108;48.094;11.838;2023-07-16T13:26:42;3.27;;;1.90;;
70558;SDS011;58108;48.094;11.838;2023-07-16T13:29:07;4.07;;;3.67;;
70558;SDS011;58108;48.094;11.838;2023-07-16T13:31:32;2.90;;;2.10;;
70558;SDS011;58108;48.094;11.838;2023-07-16T13:33:57;4.37;;;2.10;;
70558;SDS011;58108;48.094;11.838;2023-07-16T13:36:23;7.63;;;5.70;;
70558;SDS011;58108;48.094;11.838;2023-07-16T13:38:48;5.38;;;3.90;;
70558;SDS011;58108;48.094;11.838;2023-07-16T13:41:13;4.07;;;2.60;;
70558;SDS011;58108;48.094;11.838;2023-07-16T13:43:38;3.50;;;2.23;;
70558;SDS011;58108;48.094;11.838;2023-07-16T13:46:03;3.87;;;2.30;;
70558;SDS011;58108;48.094;11.838;2023-07-16T13:48:29;3.20;;;2.00;;
70558;SDS011;58108;48.094;11.838;2023-07-16T13:50:54;4.18;;;3.05;;
70558;SDS011;58108;48.094;11.838;2023-07-16T13:53:20;4.65;;;2.50;;
70558;SDS011;58108;48.094;11.838;2023-07-16T13:55:45;4.45;;;2.60;;
70558;SDS011;58108;48.094;11.838;2023-07-16T13:58:10;2.77;;;1.80;;
70558;SDS011;58108;48.094;11.838;2023-07-16T14:00:36;3.57;;;2.17;;
70558;SDS011;58108;48.094;11.838;2023-07-16T14:03:01;3.63;;;2.30;;
70558;SDS011;58108;48.094;11.838;2023-07-16T14:05:26;5.23;;;3.50;;
70558;SDS011;58108;48.094;11.838;2023-07-16T14:07:51;4.17;;;2.87;;
70558;SDS011;58108;48.094;11.838;2023-07-16T14:10:18;3.13;;;2.25;;
70558;SDS011;58108;48.094;11.838;2023-07-16T14:12:43;3.80;;;2.40;;
70558;SDS011;58108;48.094;11.838;2023-07-16T14:15:09;3.73;;;2.50;;
70558;SDS011;58108;48.094;11.838;2023-07-16T14:17:34;3.07;;;2.27;;
70558;SDS011;58108;48.094;11.838;2023-07-16T14:19:59;3.28;;;2.20;;
70558;SDS011;58108;48.094;11.838;2023-07-16T14:22:24;3.60;;;2.30;;
70558;SDS011;58108;48.094;11.838;2023-07-16T14:24:52;2.70;;;1.98;;
70558;SDS011;58108;48.094;11.838;2023-07-16T14:27:17;2.80;;;1.83;;
70558;SDS011;58108;48.094;11.838;2023-07-16T14:29:44;2.88;;;1.88;;
70558;SDS011;58108;48.094;11.838;2023-07-16T14:32:10;3.23;;;2.10;;
70558;SDS011;58108;48.094;11.838;2023-07-16T14:34:35;3.00;;;1.80;;
70558;SDS011;58108;48.094;11.838;2023-07-16T14:37:01;3.83;;;2.10;;